Dades meteomassalio
Diari Summary for Setembre 1, 2017 Units:  English    Metric   Both
« Previous Day
Next Day »
Diari Semanal Mensual Anual Personalitzat
  Maxima: Minima: Mijana:
Temperatura: TemperatureC °F 12.8 °F 18.9 °F
Rosada: DewpointC °F 7.3 °F 9.6 °F
Humitat: Humidity % 39 % 56 %
Velocitat del vent: WindSpeedKMH mph 0.0 mph 18.9 mph
Racha vent: WindSpeedGustKMH mph - -
Vent:- - SW
Pressio: PressurehPa in 1019.9 in -
Pluja: 0.0 in    
Historical Graphs
 
 
Tabular Data for Setembre 1, 2017
Time Temperature Dew Point Pressure Wind Wind Speed Wind Gust Humidity Rainfall Rate (Hourly) solar Conditions
TemperatureC °F DewpointC °F PressurehPa in Calm     Humidity % HourlyPrecipMM in SolarRadiationWatts/m^2 W/m2 Conditions
00:04 15.6 °F 9.7 °F 1021.9 in Calm     68 % 0.0 in 0.0 W/m2 RA
00:09 15.6 °F 9.9 °F 1021.9 in Calm     69 % 0.0 in 0.0 W/m2 CLR
00:14 15.6 °F 9.7 °F 1021.9 in SSW 1.6 mph   68 % 0.0 in 0.0 W/m2 CLR
00:19 15.6 °F 9.4 °F 1021.9 in Calm     67 % 0.0 in 0.0 W/m2 CLR
00:24 15.6 °F 9.2 °F 1021.9 in Calm     66 % 0.0 in 0.0 W/m2 CLR
00:29 15.6 °F 9.4 °F 1021.9 in Calm     67 % 0.0 in 0.0 W/m2 CLR
00:34 15.6 °F 9.9 °F 1021.9 in Calm     69 % 0.0 in 0.0 W/m2 CLR
00:39 15.6 °F 9.9 °F 1021.9 in SSE 3.7 mph 3.7 mph 69 % 0.0 in 0.0 W/m2 CLR
00:44 15.6 °F 9.9 °F 1022.2 in SSE 5.6 mph 5.6 mph 69 % 0.0 in 0.0 W/m2 CLR
00:49 15.6 °F 9.9 °F 1022.2 in Calm     69 % 0.0 in 0.0 W/m2 CLR
00:54 16.1 °F 10.6 °F 1021.9 in Calm     70 % 0.0 in 0.0 W/m2 CLR
00:59 16.1 °F 10.6 °F 1021.9 in Calm     70 % 0.0 in 0.0 W/m2 CLR
01:04 16.1 °F 10.6 °F 1022.2 in Calm     70 % 0.0 in 0.0 W/m2 CLR
01:09 16.1 °F 10.2 °F 1021.9 in Calm     68 % 0.0 in 0.0 W/m2 CLR
01:14 16.1 °F 10.0 °F 1021.9 in Calm     67 % 0.0 in 0.0 W/m2 CLR
01:19 15.6 °F 9.4 °F 1021.9 in SSW 3.2 mph   67 % 0.0 in 0.0 W/m2 CLR
01:24 15.6 °F 9.7 °F 1021.9 in Calm     68 % 0.0 in 0.0 W/m2 CLR
01:29 15.0 °F 8.9 °F 1021.9 in SSW 5.6 mph 5.6 mph 67 % 0.0 in 0.0 W/m2 CLR
01:34 15.0 °F 8.9 °F 1021.9 in Calm     67 % 0.0 in 0.0 W/m2 CLR
01:39 15.0 °F 8.9 °F 1021.9 in Calm     67 % 0.0 in 0.0 W/m2 CLR
01:44 15.0 °F 9.1 °F 1021.9 in Calm     68 % 0.0 in 0.0 W/m2 CLR
01:49 15.0 °F 9.3 °F 1021.9 in Calm     69 % 0.0 in 0.0 W/m2 CLR
01:54 14.4 °F 9.1 °F 1021.9 in Calm     70 % 0.0 in 0.0 W/m2 CLR
01:59 14.4 °F 9.1 °F 1021.9 in Calm     70 % 0.0 in 0.0 W/m2 CLR
02:04 14.4 °F 9.1 °F 1021.9 in Calm     70 % 0.0 in 0.0 W/m2 CLR
02:09 14.4 °F 9.2 °F 1021.9 in Calm     71 % 0.0 in 0.0 W/m2 CLR
02:14 14.4 °F 9.1 °F 1021.9 in Calm     70 % 0.0 in 0.0 W/m2 CLR
02:19 14.4 °F 9.1 °F 1022.2 in Calm     70 % 0.0 in 0.0 W/m2 CLR
02:24 14.4 °F 9.1 °F 1021.9 in Calm     70 % 0.0 in 0.0 W/m2 CLR
02:29 14.4 °F 9.1 °F 1021.9 in Calm     70 % 0.0 in 0.0 W/m2 CLR
02:34 13.9 °F 8.3 °F 1021.9 in Calm     69 % 0.0 in 0.0 W/m2 CLR
02:39 13.9 °F 8.3 °F 1021.9 in Calm     69 % 0.0 in 0.0 W/m2 CLR
02:40 13.9 °F 8.3 °F 1021.9 in Calm     69 % 0.0 in 0.0 W/m2 CLR
02:45 13.9 °F 8.3 °F 1021.9 in SSW 7.4 mph 7.4 mph 69 % 0.0 in 0.0 W/m2 CLR
02:50 13.9 °F 8.3 °F 1021.9 in SSW 5.6 mph 5.6 mph 69 % 0.0 in 0.0 W/m2 CLR
02:55 13.3 °F 7.8 °F 1021.9 in South 7.4 mph 7.4 mph 69 % 0.0 in 0.0 W/m2 CLR
03:00 13.3 °F 7.8 °F 1021.9 in Calm     69 % 0.0 in 0.0 W/m2 CLR
03:05 13.3 °F 8.0 °F 1021.9 in SSW 9.3 mph 9.3 mph 70 % 0.0 in 0.0 W/m2 CLR
03:10 13.3 °F 8.0 °F 1021.9 in South 6.4 mph 6.4 mph 70 % 0.0 in 0.0 W/m2 CLR
03:15 13.3 °F 8.0 °F 1021.9 in Calm     70 % 0.0 in 0.0 W/m2 CLR
03:20 13.3 °F 8.2 °F 1021.9 in Calm     71 % 0.0 in 0.0 W/m2 CLR
03:25 12.8 °F 7.7 °F 1021.9 in Calm     71 % 0.0 in 0.0 W/m2 CLR
03:30 12.8 °F 7.8 °F 1021.9 in Calm     72 % 0.0 in 0.0 W/m2 CLR
03:35 12.8 °F 7.8 °F 1022.2 in South 5.6 mph 5.6 mph 72 % 0.0 in 0.0 W/m2 CLR
03:40 12.8 °F 7.8 °F 1022.2 in South 9.3 mph 9.3 mph 72 % 0.0 in 0.0 W/m2 CLR
03:45 12.8 °F 7.8 °F 1022.2 in South 1.9 mph 1.9 mph 72 % 0.0 in 0.0 W/m2 CLR
03:50 12.8 °F 8.1 °F 1022.2 in South 7.4 mph 7.4 mph 73 % 0.0 in 0.0 W/m2 CLR
03:55 12.8 °F 8.1 °F 1022.2 in SSE 7.4 mph 7.4 mph 73 % 0.0 in 0.0 W/m2 CLR
04:00 12.8 °F 8.3 °F 1022.2 in South 5.6 mph 5.6 mph 74 % 0.0 in 0.0 W/m2 CLR
04:05 12.8 °F 8.4 °F 1022.2 in Calm     75 % 0.0 in 0.0 W/m2 CLR
04:10 12.8 °F 8.4 °F 1022.2 in Calm     75 % 0.0 in 0.0 W/m2 CLR
04:15 12.8 °F 8.7 °F 1022.2 in SSW 11.1 mph 11.1 mph 76 % 0.0 in 0.0 W/m2 CLR
04:20 12.8 °F 8.7 °F 1022.2 in South 9.3 mph 9.3 mph 76 % 0.0 in 0.0 W/m2 CLR
04:25 12.8 °F 8.3 °F 1022.2 in SSW 11.1 mph 11.1 mph 74 % 0.0 in 0.0 W/m2 CLR
04:30 12.8 °F 7.8 °F 1022.2 in SSW 5.6 mph 5.6 mph 72 % 0.0 in 0.0 W/m2 CLR
04:35 12.8 °F 7.8 °F 1022.2 in SSW 9.3 mph 9.3 mph 72 % 0.0 in 0.0 W/m2 CLR
04:40 13.3 °F 8.2 °F 1022.2 in South 1.9 mph 1.9 mph 71 % 0.0 in 0.0 W/m2 CLR
04:45 13.3 °F 8.2 °F 1022.2 in Calm     71 % 0.0 in 0.0 W/m2 CLR
04:50 13.3 °F 8.4 °F 1022.2 in Calm     72 % 0.0 in 0.0 W/m2 CLR
04:55 13.3 °F 8.6 °F 1022.2 in Calm     73 % 0.0 in 0.0 W/m2 CLR
05:00 13.3 °F 8.8 °F 1022.2 in Calm     74 % 0.0 in 0.0 W/m2 CLR
05:05 13.3 °F 8.8 °F 1022.2 in Calm     74 % 0.0 in 0.0 W/m2 CLR
05:10 13.9 °F 9.6 °F 1022.2 in Calm     75 % 0.0 in 0.0 W/m2 CLR
05:15 13.9 °F 9.3 °F 1022.2 in Calm     74 % 0.0 in 0.0 W/m2 CLR
05:20 13.9 °F 8.9 °F 1022.2 in SSW 3.2 mph 3.2 mph 72 % 0.0 in 0.0 W/m2 CLR
05:22 13.9 °F 8.7 °F 1022.2 in SW 8.0 mph 8.0 mph 71 % 0.0 in 0.0 W/m2 CLR
05:24 13.9 °F 8.7 °F 1022.2 in SSW 7.4 mph 7.4 mph 71 % 0.0 in 0.0 W/m2 CLR
05:28 13.9 °F 8.5 °F 1022.2 in SSW 3.7 mph   70 % 0.0 in 0.0 W/m2 CLR
05:29 13.9 °F 8.5 °F 1022.2 in Calm     70 % 0.0 in 0.0 W/m2 CLR
05:34 13.9 °F 8.3 °F 1022.2 in SSW 6.4 mph 6.4 mph 69 % 0.0 in 0.0 W/m2 CLR
05:39 13.9 °F 8.1 °F 1022.2 in SSW 11.3 mph 11.3 mph 68 % 0.0 in 0.0 W/m2 CLR
05:44 14.4 °F 8.4 °F 1022.2 in SSW 11.3 mph 11.3 mph 67 % 0.0 in 0.0 W/m2 CLR
05:49 15.0 °F 8.9 °F 1022.2 in South 14.8 mph 14.8 mph 67 % 0.0 in 0.0 W/m2 CLR
05:54 15.6 °F 9.2 °F 1021.9 in SSW 13.0 mph 13.0 mph 66 % 0.0 in 0.0 W/m2 CLR
05:59 16.1 °F 10.0 °F 1021.9 in SSW 20.4 mph 20.4 mph 67 % 0.0 in 0.0 W/m2 CLR
06:04 16.1 °F 9.8 °F 1021.9 in SW 13.0 mph 13.0 mph 66 % 0.0 in 0.0 W/m2 CLR
06:09 16.1 °F 9.8 °F 1022.2 in SSW 13.0 mph 13.0 mph 66 % 0.0 in 0.0 W/m2 CLR
06:14 16.1 °F 9.8 °F 1022.2 in SSW 14.8 mph 14.8 mph 66 % 0.0 in 0.0 W/m2 CLR
06:19 16.1 °F 9.8 °F 1022.2 in WSW 22.2 mph 22.2 mph 66 % 0.0 in 0.0 W/m2 CLR
06:24 16.1 °F 9.5 °F 1022.2 in SW 31.5 mph 31.5 mph 65 % 0.0 in 0.0 W/m2 CLR
06:29 16.7 °F 10.3 °F 1022.2 in SW 11.1 mph 11.1 mph 66 % 0.0 in 0.0 W/m2 CLR
06:34 16.7 °F 10.3 °F 1022.2 in WSW 22.5 mph 22.5 mph 66 % 0.0 in 0.0 W/m2 CLR
06:39 16.1 °F 10.0 °F 1022.2 in SSW 18.5 mph 18.5 mph 67 % 0.0 in 0.0 W/m2 CLR
06:44 16.1 °F 10.0 °F 1022.2 in SSW 14.8 mph 14.8 mph 67 % 0.0 in 0.0 W/m2 CLR
06:49 16.1 °F 10.0 °F 1022.2 in SW 24.1 mph 24.1 mph 67 % 0.0 in 0.0 W/m2 CLR
06:54 16.1 °F 10.0 °F 1022.2 in SW 24.1 mph 24.1 mph 67 % 0.0 in 0.0 W/m2 CLR
06:59 16.1 °F 10.2 °F 1022.2 in SW 14.8 mph 14.8 mph 68 % 0.0 in 0.0 W/m2 CLR
07:04 16.1 °F 10.2 °F 1022.2 in SW 22.5 mph 22.5 mph 68 % 0.0 in 0.0 W/m2 CLR
07:09 16.1 °F 10.2 °F 1022.2 in SW 18.5 mph 18.5 mph 68 % 0.0 in 0.0 W/m2 CLR
07:14 16.1 °F 10.0 °F 1022.2 in SSW 18.5 mph 18.5 mph 67 % 0.0 in 0.0 W/m2 CLR
07:19 16.1 °F 10.0 °F 1022.2 in SSW 16.7 mph 16.7 mph 67 % 0.0 in 0.0 W/m2 OVC
07:24 16.1 °F 9.8 °F 1022.2 in SW 18.5 mph 18.5 mph 66 % 0.0 in 0.0 W/m2 OVC
07:29 16.1 °F 9.8 °F 1022.2 in SSW 18.5 mph 18.5 mph 66 % 0.0 in 0.0 W/m2 OVC
07:34 16.1 °F 9.8 °F 1022.2 in SSW 13.0 mph 13.0 mph 66 % 0.0 in 5.0 W/m2 OVC
07:39 16.1 °F 9.8 °F 1022.2 in SSW 22.2 mph 22.2 mph 66 % 0.0 in 5.0 W/m2 OVC
07:44 16.1 °F 9.8 °F 1022.2 in SSW 7.4 mph 7.4 mph 66 % 0.0 in 5.0 W/m2 OVC
07:49 16.1 °F 9.8 °F 1022.2 in South 9.7 mph 9.7 mph 66 % 0.0 in 7.0 W/m2 BKN
07:54 16.1 °F 9.8 °F 1022.2 in SSW 18.5 mph 18.5 mph 66 % 0.0 in 14.0 W/m2 BKN
07:59 16.1 °F 9.8 °F 1022.2 in SSW 16.7 mph 16.7 mph 66 % 0.0 in 16.0 W/m2 BKN
08:04 16.7 °F 10.1 °F 1022.2 in SSW 18.5 mph 18.5 mph 65 % 0.0 in 19.0 W/m2 BKN
08:09 16.7 °F 10.1 °F 1022.2 in SSW 13.0 mph 13.0 mph 65 % 0.0 in 28.0 W/m2 BKN
08:14 16.7 °F 10.1 °F 1022.6 in SSW 18.5 mph 18.5 mph 65 % 0.0 in 35.0 W/m2 BKN
08:19 16.7 °F 10.1 °F 1022.6 in SSW 22.2 mph 22.2 mph 65 % 0.0 in 42.0 W/m2 BKN
08:24 16.7 °F 10.3 °F 1022.6 in SW 25.7 mph 25.7 mph 66 % 0.0 in 49.0 W/m2 SCT
08:29 16.7 °F 10.1 °F 1022.6 in SW 25.9 mph 25.9 mph 65 % 0.0 in 60.0 W/m2 SCT
08:34 16.7 °F 10.1 °F 1022.6 in SW 18.5 mph 18.5 mph 65 % 0.0 in 58.0 W/m2 SCT
08:39 16.7 °F 10.3 °F 1022.6 in SSW 20.4 mph 20.4 mph 66 % 0.0 in 67.0 W/m2 SCT
08:40 16.7 °F 10.3 °F 1022.6 in SSW 20.4 mph 20.4 mph 66 % 0.0 in 77.0 W/m2 SCT
08:45 16.7 °F 10.3 °F 1022.6 in SW 20.9 mph 20.9 mph 66 % 0.0 in 104.0 W/m2 FEW
08:50 16.7 °F 10.3 °F 1022.6 in SSW 18.5 mph 18.5 mph 66 % 0.0 in 183.0 W/m2 CLR
08:55 17.2 °F 10.6 °F 1022.6 in SW 20.4 mph 20.4 mph 65 % 0.0 in 120.0 W/m2 CLR
09:00 17.2 °F 10.6 °F 1022.6 in SSW 22.2 mph 22.2 mph 65 % 0.0 in 253.0 W/m2 CLR
09:05 17.8 °F 11.1 °F 1022.6 in SSW 25.9 mph 25.9 mph 65 % 0.0 in 227.0 W/m2 CLR
09:10 17.8 °F 11.1 °F 1022.6 in SW 31.5 mph 31.5 mph 65 % 0.0 in 248.0 W/m2 CLR
09:15 17.8 °F 10.9 °F 1022.6 in SSW 24.1 mph 24.1 mph 64 % 0.0 in 267.0 W/m2 CLR
09:20 17.8 °F 11.1 °F 1022.6 in SSW 18.5 mph 18.5 mph 65 % 0.0 in 193.0 W/m2 CLR
09:25 17.8 °F 10.6 °F 1022.6 in SW 27.8 mph 27.8 mph 63 % 0.0 in 95.0 W/m2 CLR
09:30 17.2 °F 10.6 °F 1022.6 in SW 29.0 mph 29.0 mph 65 % 0.0 in 135.0 W/m2 CLR
09:35 17.2 °F 10.3 °F 1022.9 in SSW 18.5 mph 18.5 mph 64 % 0.0 in 357.0 W/m2 CLR
09:40 17.8 °F 10.6 °F 1022.6 in SW 24.1 mph 24.1 mph 63 % 0.0 in 404.0 W/m2 CLR
09:45 18.3 °F 11.2 °F 1022.9 in WSW 22.2 mph 22.2 mph 63 % 0.0 in 424.0 W/m2 CLR
09:50 18.3 °F 11.2 °F 1022.9 in SW 27.4 mph 27.4 mph 63 % 0.0 in 399.0 W/m2 CLR
09:55 17.8 °F 10.6 °F 1022.9 in WSW 22.5 mph 22.5 mph 63 % 0.0 in 181.0 W/m2 CLR
10:00 18.3 °F 11.2 °F 1022.9 in WSW 24.1 mph 24.1 mph 63 % 0.0 in 443.0 W/m2 CLR
10:05 18.3 °F 11.2 °F 1022.9 in SW 18.5 mph 18.5 mph 63 % 0.0 in 482.0 W/m2 CLR
10:10 18.9 °F 11.2 °F 1022.9 in WSW 27.8 mph 27.8 mph 61 % 0.0 in 608.0 W/m2 CLR
10:15 18.9 °F 11.2 °F 1022.9 in WSW 20.4 mph 20.4 mph 61 % 0.0 in 473.0 W/m2 CLR
10:20 18.9 °F 11.2 °F 1022.9 in SW 24.1 mph 24.1 mph 61 % 0.0 in 257.0 W/m2 CLR
10:25 18.3 °F 10.9 °F 1022.9 in SSW 20.4 mph 20.4 mph 62 % 0.0 in 211.0 W/m2 CLR
10:30 18.3 °F 11.2 °F 1022.9 in WSW 7.4 mph 7.4 mph 63 % 0.0 in 211.0 W/m2 CLR
10:35 18.3 °F 11.2 °F 1023.2 in SW 22.2 mph 22.2 mph 63 % 0.0 in 185.0 W/m2 CLR
10:40 18.3 °F 11.2 °F 1023.2 in SW 16.7 mph 16.7 mph 63 % 0.0 in 199.0 W/m2 CLR
10:45 18.3 °F 11.2 °F 1023.2 in SW 20.4 mph 20.4 mph 63 % 0.0 in 163.0 W/m2 CLR
10:50 18.3 °F 11.4 °F 1023.2 in SW 18.5 mph 18.5 mph 64 % 0.0 in 195.0 W/m2 CLR
10:55 18.3 °F 10.9 °F 1023.2 in SSW 20.4 mph 20.4 mph 62 % 0.0 in 257.0 W/m2 CLR
11:00 18.3 °F 11.4 °F 1023.2 in WSW 13.0 mph 13.0 mph 64 % 0.0 in 733.0 W/m2 CLR
11:06 18.9 °F 11.2 °F 1023.2 in SW 27.8 mph 27.8 mph 61 % 0.0 in 346.0 W/m2 CLR
11:11 19.4 °F 11.5 °F 1023.2 in WSW 18.5 mph 18.5 mph 60 % 0.0 in 726.0 W/m2 CLR
11:16 19.4 °F 11.2 °F 1023.2 in SW 22.2 mph 22.2 mph 59 % 0.0 in 682.0 W/m2 CLR
11:21 19.4 °F 11.2 °F 1023.2 in WSW 24.1 mph 24.1 mph 59 % 0.0 in 650.0 W/m2 CLR
11:26 20.0 °F 11.7 °F 1023.2 in WSW 22.5 mph 22.5 mph 59 % 0.0 in 657.0 W/m2 CLR
11:31 20.0 °F 11.5 °F 1023.2 in SW 22.2 mph 22.2 mph 58 % 0.0 in 677.0 W/m2 CLR
11:36 20.6 °F 11.7 °F 1022.9 in West 16.7 mph 16.7 mph 57 % 0.0 in 722.0 W/m2 CLR
11:41 20.6 °F 11.7 °F 1022.9 in SW 20.4 mph 20.4 mph 57 % 0.0 in 853.0 W/m2 CLR
11:46 20.6 °F 11.7 °F 1022.9 in SW 11.1 mph 11.1 mph 57 % 0.0 in 480.0 W/m2 CLR
11:51 20.6 °F 11.7 °F 1022.9 in SW 18.5 mph 18.5 mph 57 % 0.0 in 729.0 W/m2 CLR
11:56 21.1 °F 11.7 °F 1022.9 in West 19.3 mph 19.3 mph 55 % 0.0 in 703.0 W/m2 CLR
12:01 21.1 °F 12.0 °F 1022.9 in WSW 22.2 mph 22.2 mph 56 % 0.0 in 717.0 W/m2 CLR
12:06 21.1 °F 11.7 °F 1022.6 in WSW 24.1 mph 24.1 mph 55 % 0.0 in 738.0 W/m2 CLR
12:11 21.1 °F 12.3 °F 1022.6 in WSW 25.9 mph 25.9 mph 57 % 0.0 in 728.0 W/m2 CLR
12:16 21.1 °F 10.6 °F 1022.6 in WSW 18.5 mph 18.5 mph 51 % 0.0 in 751.0 W/m2 CLR
12:21 21.7 °F 11.4 °F 1022.6 in SSW 14.8 mph 14.8 mph 52 % 0.0 in 684.0 W/m2 CLR
12:26 21.7 °F 10.5 °F 1022.6 in SW 27.4 mph 27.4 mph 49 % 0.0 in 817.0 W/m2 CLR
12:31 21.7 °F 10.2 °F 1022.2 in SW 20.4 mph 20.4 mph 48 % 0.0 in 840.0 W/m2 CLR
12:36 22.2 °F 10.4 °F 1022.6 in WSW 22.2 mph 22.2 mph 47 % 0.0 in 837.0 W/m2 CLR
12:41 22.8 °F 11.2 °F 1022.2 in SW 22.2 mph 22.2 mph 48 % 0.0 in 789.0 W/m2 CLR
12:46 22.2 °F 10.4 °F 1022.2 in SSW 20.4 mph 20.4 mph 47 % 0.0 in 775.0 W/m2 CLR
12:51 22.8 °F 11.2 °F 1022.2 in SSW 22.2 mph 22.2 mph 48 % 0.0 in 779.0 W/m2 CLR
12:56 22.8 °F 10.6 °F 1022.2 in SW 18.5 mph 18.5 mph 46 % 0.0 in 789.0 W/m2 CLR
13:01 23.3 °F 10.7 °F 1022.2 in WSW 25.9 mph 25.9 mph 45 % 0.0 in 800.0 W/m2 CLR
13:06 23.3 °F 10.1 °F 1022.2 in WSW 29.6 mph 29.6 mph 43 % 0.0 in 824.0 W/m2 CLR
13:11 23.3 °F 10.7 °F 1022.2 in West 24.1 mph 24.1 mph 45 % 0.0 in 891.0 W/m2 CLR
13:16 23.3 °F 10.7 °F 1022.2 in SW 22.5 mph 22.5 mph 45 % 0.0 in 867.0 W/m2 CLR
13:21 23.3 °F 10.7 °F 1022.2 in SW 24.1 mph 24.1 mph 45 % 0.0 in 833.0 W/m2 CLR
13:26 23.3 °F 10.4 °F 1021.9 in West 20.4 mph 20.4 mph 44 % 0.0 in 817.0 W/m2 CLR
13:31 23.3 °F 10.7 °F 1021.9 in WSW 20.4 mph 20.4 mph 45 % 0.0 in 830.0 W/m2 CLR
13:36 23.3 °F 9.3 °F 1021.9 in SSW 27.8 mph 27.8 mph 41 % 0.0 in 754.0 W/m2 CLR
13:41 23.9 °F 10.6 °F 1021.9 in WSW 27.8 mph 27.8 mph 43 % 0.0 in 851.0 W/m2 CLR
13:51 23.3 °F 9.7 °F 1021.9 in SW 27.8 mph 27.8 mph 42 % 0.0 in 849.0 W/m2 CLR
13:56 23.9 °F 9.1 °F 1021.9 in WNW 27.8 mph 27.8 mph 39 % 0.0 in 868.0 W/m2 CLR
14:01 23.3 °F 9.3 °F 1021.6 in West 27.8 mph 27.8 mph 41 % 0.0 in 861.0 W/m2 CLR
14:06 23.3 °F 8.9 °F 1021.6 in SW 27.8 mph 27.8 mph 40 % 0.0 in 868.0 W/m2 CLR
14:11 23.3 °F 8.6 °F 1021.6 in West 24.1 mph 24.1 mph 39 % 0.0 in 849.0 W/m2 CLR
14:16 23.9 °F 9.1 °F 1021.6 in West 29.6 mph 29.6 mph 39 % 0.0 in 821.0 W/m2 CLR
14:21 23.9 °F 9.4 °F 1021.6 in WSW 31.5 mph 31.5 mph 40 % 0.0 in 824.0 W/m2 CLR
14:26 23.9 °F 10.2 °F 1021.6 in SW 18.5 mph 18.5 mph 42 % 0.0 in 826.0 W/m2 CLR
14:31 23.9 °F 9.4 °F 1021.2 in SW 27.8 mph 27.8 mph 40 % 0.0 in 821.0 W/m2 CLR
14:41 23.9 °F 9.4 °F 1021.2 in WSW 20.4 mph 20.4 mph 40 % 0.0 in 817.0 W/m2 CLR
14:46 23.9 °F 9.8 °F 1021.2 in WSW 27.8 mph 27.8 mph 41 % 0.0 in 837.0 W/m2 CLR
14:51 23.9 °F 9.4 °F 1021.2 in WSW 29.6 mph 29.6 mph 40 % 0.0 in 802.0 W/m2 CLR
14:56 23.9 °F 10.2 °F 1021.2 in West 27.4 mph 27.4 mph 42 % 0.0 in 803.0 W/m2 CLR
15:01 23.9 °F 9.4 °F 1021.2 in WNW 25.9 mph 25.9 mph 40 % 0.0 in 796.0 W/m2 CLR
15:06 24.4 °F 10.7 °F 1020.9 in SW 20.9 mph 20.9 mph 42 % 0.0 in 793.0 W/m2 CLR
15:11 23.9 °F 10.2 °F 1020.9 in SW 27.8 mph 27.8 mph 42 % 0.0 in 791.0 W/m2 CLR
15:16 24.4 °F 9.9 °F 1020.9 in West 18.5 mph 18.5 mph 40 % 0.0 in 786.0 W/m2 CLR
15:21 24.4 °F 10.3 °F 1020.9 in WSW 25.7 mph 25.7 mph 41 % 0.0 in 773.0 W/m2 CLR
15:26 24.4 °F 10.7 °F 1020.9 in West 24.1 mph 24.1 mph 42 % 0.0 in 770.0 W/m2 CLR
15:31 24.4 °F 9.9 °F 1020.5 in SW 25.9 mph 25.9 mph 40 % 0.0 in 758.0 W/m2 CLR
15:36 24.4 °F 9.9 °F 1020.9 in West 25.9 mph 25.9 mph 40 % 0.0 in 752.0 W/m2 CLR
15:41 23.9 °F 10.2 °F 1020.5 in WSW 25.9 mph 25.9 mph 42 % 0.0 in 744.0 W/m2 CLR
15:46 23.9 °F 10.2 °F 1020.5 in SW 29.6 mph 29.6 mph 42 % 0.0 in 735.0 W/m2 CLR
15:51 23.9 °F 10.2 °F 1020.5 in WSW 24.1 mph 24.1 mph 42 % 0.0 in 729.0 W/m2 CLR
15:56 24.4 °F 10.7 °F 1020.5 in SW 31.5 mph 31.5 mph 42 % 0.0 in 721.0 W/m2 CLR
16:01 24.4 °F 10.7 °F 1020.5 in WSW 33.3 mph 33.3 mph 42 % 0.0 in 708.0 W/m2 CLR
16:06 24.4 °F 11.1 °F 1020.2 in WSW 22.2 mph 22.2 mph 43 % 0.0 in 698.0 W/m2 CLR
16:11 24.4 °F 10.3 °F 1020.2 in West 27.8 mph 27.8 mph 41 % 0.0 in 686.0 W/m2 CLR
16:16 24.4 °F 10.3 °F 1020.2 in WSW 30.6 mph 30.6 mph 41 % 0.0 in 682.0 W/m2 CLR
16:21 24.4 °F 10.7 °F 1020.2 in WSW 33.3 mph 33.3 mph 42 % 0.0 in 673.0 W/m2 CLR
16:26 24.4 °F 10.3 °F 1020.2 in WSW 27.8 mph 27.8 mph 41 % 0.0 in 663.0 W/m2 CLR
16:31 24.4 °F 10.3 °F 1020.2 in SW 31.5 mph 31.5 mph 41 % 0.0 in 652.0 W/m2 CLR
16:36 25.0 °F 11.2 °F 1020.2 in West 24.1 mph 24.1 mph 42 % 0.0 in 640.0 W/m2 CLR
16:41 24.4 °F 10.7 °F 1020.2 in West 31.5 mph 31.5 mph 42 % 0.0 in 631.0 W/m2 CLR
16:46 24.4 °F 10.3 °F 1019.9 in West 29.6 mph 29.6 mph 41 % 0.0 in 617.0 W/m2 CLR
16:51 24.4 °F 10.7 °F 1019.9 in WSW 31.5 mph 31.5 mph 42 % 0.0 in 605.0 W/m2 CLR
16:57 24.4 °F 10.7 °F 1020.2 in SW 20.9 mph 20.9 mph 42 % 0.0 in 594.0 W/m2 CLR
17:02 25.0 °F 11.2 °F 1020.2 in WSW 35.2 mph 35.2 mph 42 % 0.0 in 580.0 W/m2 CLR
17:07 25.0 °F 11.2 °F 1019.9 in SW 18.5 mph 18.5 mph 42 % 0.0 in 563.0 W/m2 CLR
17:12 24.4 °F 10.7 °F 1019.9 in SW 35.2 mph 35.2 mph 42 % 0.0 in 545.0 W/m2 CLR
17:17 24.4 °F 10.7 °F 1019.9 in WSW 27.8 mph 27.8 mph 42 % 0.0 in 534.0 W/m2 CLR
17:22 24.4 °F 11.1 °F 1019.9 in WSW 25.9 mph 25.9 mph 43 % 0.0 in 527.0 W/m2 CLR
17:27 24.4 °F 10.7 °F 1019.9 in WSW 31.5 mph 31.5 mph 42 % 0.0 in 508.0 W/m2 CLR
17:32 24.4 °F 11.1 °F 1019.9 in West 35.2 mph 35.2 mph 43 % 0.0 in 499.0 W/m2 CLR
17:37 24.4 °F 10.7 °F 1019.9 in WSW 24.1 mph 24.1 mph 42 % 0.0 in 482.0 W/m2 CLR
17:42 24.4 °F 10.3 °F 1019.9 in West 43.4 mph 43.4 mph 41 % 0.0 in 468.0 W/m2 CLR
17:47 24.4 °F 10.7 °F 1019.9 in WSW 32.2 mph 32.2 mph 42 % 0.0 in 452.0 W/m2 CLR
17:52 24.4 °F 10.3 °F 1019.9 in WSW 35.2 mph 35.2 mph 41 % 0.0 in 436.0 W/m2 CLR
17:57 24.4 °F 10.7 °F 1019.9 in SW 27.8 mph 27.8 mph 42 % 0.0 in 425.0 W/m2 CLR
18:02 24.4 °F 10.7 °F 1019.9 in West 25.9 mph 25.9 mph 42 % 0.0 in 406.0 W/m2 CLR
18:07 24.4 °F 10.3 °F 1019.9 in WSW 24.1 mph 24.1 mph 41 % 0.0 in 392.0 W/m2 CLR
18:12 23.9 °F 10.2 °F 1019.9 in SW 25.9 mph 25.9 mph 42 % 0.0 in 376.0 W/m2 CLR
18:17 23.9 °F 10.2 °F 1019.9 in WSW 37.0 mph 37.0 mph 42 % 0.0 in 362.0 W/m2 CLR
18:22 23.9 °F 10.2 °F 1019.9 in SW 27.8 mph 27.8 mph 42 % 0.0 in 348.0 W/m2 CLR
18:27 23.9 °F 10.2 °F 1019.9 in WSW 29.6 mph 29.6 mph 42 % 0.0 in 334.0 W/m2 CLR
18:32 23.9 °F 9.8 °F 1020.2 in WSW 20.4 mph 20.4 mph 41 % 0.0 in 318.0 W/m2 CLR
18:37 23.3 °F 9.3 °F 1020.2 in WSW 27.8 mph 27.8 mph 41 % 0.0 in 301.0 W/m2 CLR
18:42 23.3 °F 9.3 °F 1020.2 in WSW 25.9 mph 25.9 mph 41 % 0.0 in 287.0 W/m2 CLR
18:47 23.3 °F 9.3 °F 1020.2 in WSW 27.8 mph 27.8 mph 41 % 0.0 in 269.0 W/m2 CLR
18:52 23.3 °F 9.3 °F 1020.2 in SW 40.7 mph 40.7 mph 41 % 0.0 in 248.0 W/m2 CLR
18:57 23.3 °F 9.7 °F 1020.2 in West 27.8 mph 27.8 mph 42 % 0.0 in 230.0 W/m2 CLR
19:02 22.8 °F 9.2 °F 1020.2 in WSW 31.5 mph 31.5 mph 42 % 0.0 in 214.0 W/m2 CLR
19:07 22.8 °F 9.2 °F 1020.2 in WSW 27.4 mph 27.4 mph 42 % 0.0 in 197.0 W/m2 CLR
19:12 22.8 °F 8.8 °F 1020.2 in SW 33.3 mph 33.3 mph 41 % 0.0 in 179.0 W/m2 CLR
19:17 22.8 °F 8.8 °F 1020.2 in SW 25.9 mph 25.9 mph 41 % 0.0 in 156.0 W/m2 CLR
19:22 22.8 °F 8.4 °F 1020.2 in West 33.3 mph 33.3 mph 40 % 0.0 in 135.0 W/m2 CLR
19:26 22.8 °F 8.8 °F 1020.2 in WSW 24.1 mph 24.1 mph 41 % 0.0 in 127.0 W/m2 CLR
19:31 22.2 °F 8.3 °F 1020.2 in SW 31.5 mph 31.5 mph 41 % 0.0 in 113.0 W/m2 CLR
19:36 22.2 °F 7.9 °F 1020.2 in WSW 25.7 mph 25.7 mph 40 % 0.0 in 97.0 W/m2 CLR
19:41 22.2 °F 8.3 °F 1020.2 in WSW 24.1 mph 24.1 mph 41 % 0.0 in 83.0 W/m2 CLR
19:46 22.2 °F 7.9 °F 1020.2 in WSW 18.5 mph 18.5 mph 40 % 0.0 in 65.0 W/m2 SCT
19:51 21.7 °F 7.5 °F 1020.2 in WSW 18.5 mph 18.5 mph 40 % 0.0 in 54.0 W/m2 SCT
19:56 21.7 °F 7.5 °F 1020.5 in WSW 29.6 mph 29.6 mph 40 % 0.0 in 46.0 W/m2 SCT
20:01 21.7 °F 7.8 °F 1020.5 in WSW 24.1 mph 24.1 mph 41 % 0.0 in 35.0 W/m2 BKN
20:06 21.7 °F 7.8 °F 1020.5 in WSW 31.5 mph 31.5 mph 41 % 0.0 in 26.0 W/m2 BKN
20:11 21.7 °F 7.8 °F 1020.5 in SW 31.5 mph 31.5 mph 41 % 0.0 in 19.0 W/m2 BKN
20:16 21.1 °F 7.3 °F 1020.5 in WSW 29.6 mph 29.6 mph 41 % 0.0 in 16.0 W/m2 BKN
20:21 21.1 °F 7.7 °F 1020.5 in SW 27.4 mph 27.4 mph 42 % 0.0 in 12.0 W/m2 BKN
20:26 21.1 °F 8.1 °F 1020.5 in WSW 31.5 mph 31.5 mph 43 % 0.0 in 9.0 W/m2 BKN
20:31 21.1 °F 8.1 °F 1020.9 in WSW 31.5 mph 31.5 mph 43 % 0.0 in 5.0 W/m2 OVC
20:36 20.6 °F 7.9 °F 1020.9 in SW 25.9 mph 25.9 mph 44 % 0.0 in 0.0 W/m2 OVC
20:41 20.6 °F 7.9 °F 1020.9 in SW 22.2 mph 22.2 mph 44 % 0.0 in 0.0 W/m2 OVC
20:46 20.6 °F 8.2 °F 1021.2 in WSW 19.3 mph 19.3 mph 45 % 0.0 in 0.0 W/m2 CLR
20:51 20.6 °F 8.2 °F 1021.2 in WSW 20.4 mph 20.4 mph 45 % 0.0 in 0.0 W/m2 CLR
20:56 20.0 °F 8.0 °F 1021.2 in West 24.1 mph 24.1 mph 46 % 0.0 in 0.0 W/m2 CLR
21:01 20.0 °F 8.0 °F 1021.2 in SW 25.7 mph 25.7 mph 46 % 0.0 in 0.0 W/m2 CLR
21:06 20.6 °F 8.6 °F 1021.2 in SW 25.9 mph 25.9 mph 46 % 0.0 in 0.0 W/m2 CLR
21:11 20.0 °F 8.3 °F 1021.6 in SW 22.2 mph 22.2 mph 47 % 0.0 in 0.0 W/m2 CLR
21:16 20.0 °F 8.7 °F 1021.6 in SSW 18.5 mph 18.5 mph 48 % 0.0 in 0.0 W/m2 CLR
21:21 20.0 °F 8.3 °F 1021.6 in SW 18.5 mph 18.5 mph 47 % 0.0 in 0.0 W/m2 CLR
21:26 19.4 °F 8.2 °F 1021.6 in SW 18.5 mph 18.5 mph 48 % 0.0 in 0.0 W/m2 CLR
21:31 19.4 °F 8.2 °F 1021.9 in SW 25.9 mph 25.9 mph 48 % 0.0 in 0.0 W/m2 CLR
21:36 19.4 °F 8.4 °F 1021.9 in SSW 18.5 mph 18.5 mph 49 % 0.0 in 0.0 W/m2 CLR
21:41 19.4 °F 8.2 °F 1021.9 in SSW 18.5 mph 18.5 mph 48 % 0.0 in 0.0 W/m2 CLR
21:46 19.4 °F 8.4 °F 1021.9 in WSW 27.8 mph 27.8 mph 49 % 0.0 in 0.0 W/m2 CLR
21:51 19.4 °F 8.2 °F 1022.2 in SW 25.9 mph 25.9 mph 48 % 0.0 in 0.0 W/m2 CLR
21:56 19.4 °F 8.4 °F 1022.2 in SW 20.4 mph 20.4 mph 49 % 0.0 in 0.0 W/m2 CLR
22:01 19.4 °F 8.4 °F 1022.2 in SSW 27.8 mph 27.8 mph 49 % 0.0 in 0.0 W/m2 CLR
22:06 18.9 °F 7.9 °F 1022.2 in SSW 27.8 mph 27.8 mph 49 % 0.0 in 0.0 W/m2 CLR
22:11 18.9 °F 8.2 °F 1022.6 in SW 31.5 mph 31.5 mph 50 % 0.0 in 0.0 W/m2 CLR
22:16 18.9 °F 8.2 °F 1022.2 in SSW 25.9 mph 25.9 mph 50 % 0.0 in 0.0 W/m2 CLR
22:21 18.9 °F 8.2 °F 1022.2 in SSW 31.5 mph 31.5 mph 50 % 0.0 in 0.0 W/m2 CLR
22:26 18.9 °F 8.5 °F 1022.6 in SW 31.5 mph 31.5 mph 51 % 0.0 in 0.0 W/m2 CLR
22:31 18.9 °F 8.5 °F 1022.6 in SW 29.6 mph 29.6 mph 51 % 0.0 in 0.0 W/m2 CLR
22:36 18.9 °F 8.8 °F 1022.6 in SSW 32.2 mph 32.2 mph 52 % 0.0 in 0.0 W/m2 CLR
22:41 18.9 °F 8.8 °F 1022.6 in SW 24.1 mph 24.1 mph 52 % 0.0 in 0.0 W/m2 CLR
22:46 18.3 °F 8.6 °F 1022.6 in SW 31.5 mph 31.5 mph 53 % 0.0 in 0.0 W/m2 CLR
22:51 18.3 °F 8.6 °F 1022.6 in SSW 27.8 mph 27.8 mph 53 % 0.0 in 0.0 W/m2 CLR
22:56 18.3 °F 8.6 °F 1022.6 in SSW 29.6 mph 29.6 mph 53 % 0.0 in 0.0 W/m2 CLR
23:01 18.3 °F 8.8 °F 1022.6 in SW 25.9 mph 25.9 mph 54 % 0.0 in 0.0 W/m2 CLR
23:06 18.3 °F 9.1 °F 1022.6 in SSW 27.8 mph 27.8 mph 55 % 0.0 in 0.0 W/m2 CLR
23:11 18.3 °F 9.1 °F 1022.6 in SW 31.5 mph 31.5 mph 55 % 0.0 in 0.0 W/m2 CLR
23:16 18.3 °F 9.1 °F 1022.9 in SW 29.6 mph 29.6 mph 55 % 0.0 in 0.0 W/m2 CLR
23:21 18.3 °F 9.1 °F 1022.9 in SSW 27.8 mph 27.8 mph 55 % 0.0 in 0.0 W/m2 CLR
23:26 18.3 °F 9.4 °F 1022.9 in SW 30.6 mph 30.6 mph 56 % 0.0 in 0.0 W/m2 CLR
23:31 17.8 °F 8.9 °F 1022.9 in SSW 33.8 mph 33.8 mph 56 % 0.0 in 0.0 W/m2 CLR
23:36 18.3 °F 9.7 °F 1023.2 in SW 29.6 mph 29.6 mph 57 % 0.0 in 0.0 W/m2 CLR
23:41 17.8 °F 9.2 °F 1023.2 in SW 31.5 mph 31.5 mph 57 % 0.0 in 0.0 W/m2 CLR
23:46 17.8 °F 9.2 °F 1022.9 in SW 29.6 mph 29.6 mph 57 % 0.0 in 0.0 W/m2 CLR
23:51 17.8 °F 9.4 °F 1022.9 in SW 27.8 mph 27.8 mph 58 % 0.0 in 0.0 W/m2 CLR
23:56 17.8 °F 9.4 °F 1023.2 in SSW 37.0 mph 37.0 mph 58 % 0.0 in 0.0 W/m2 CLR
Lo Temps de Massalio
Compliments of Weather Underground - 1.25 mb